Time;durP1;ratioP1;P1;durP2;ratioP2;P2;SDS_P1;SDS_P2;PMS_P1;PMS_P2;Temp;Humidity;BMP_temperature;BMP_pressure;BME280_temperature;BME280_humidity;BME280_pressure;Samples;Min_cycle;Max_cycle;Signal;HPM_P1;HPM_P2
2024/02/22 00:00:02;;;;;;;2.10;1.87;;;;;;;;;;5048292;28;20981;-86
2024/02/22 00:02:32;;;;;;;2.00;1.80;;;;;;;;;;5046793;28;20637;-86
2024/02/22 00:05:00;;;;;;;1.70;1.60;;;;;;;;;;5047637;28;21083;-85
2024/02/22 00:07:27;;;;;;;2.23;1.67;;;;;;;;;;5048521;28;20700;-85
2024/02/22 00:09:54;;;;;;;1.73;1.63;;;;;;;;;;5047054;28;21025;-85
2024/02/22 00:12:21;;;;;;;1.83;1.33;;;;;;;;;;5047819;28;20634;-86
2024/02/22 00:14:48;;;;;;;1.90;1.40;;;;;;;;;;5047251;28;20617;-85
2024/02/22 00:17:16;;;;;;;1.73;1.63;;;;;;;;;;5042554;28;20632;-86
2024/02/22 00:19:44;;;;;;;1.57;1.43;;;11.30;81.60;;;;;;5044733;28;20998;-86
2024/02/22 00:22:11;;;;;;;1.30;1.20;;;;;;;;;;5043434;28;20642;-85
2024/02/22 00:24:38;;;;;;;1.77;1.67;;;;;;;;;;5047615;28;20726;-86
2024/02/22 00:27:05;;;;;;;2.33;1.90;;;;;;;;;;5043556;28;20644;-87
2024/02/22 00:29:32;;;;;;;2.30;1.60;;;;;;;;;;5042110;28;20758;-86
2024/02/22 00:32:00;;;;;;;4.90;2.00;;;;;;;;;;5039779;28;20634;-87
2024/02/22 00:34:27;;;;;;;2.00;1.80;;;;;;;;;;5043844;28;20644;-86
2024/02/22 00:36:55;;;;;;;1.70;1.60;;;11.00;87.80;;;;;;5047866;28;20631;-86
2024/02/22 00:39:22;;;;;;;1.60;1.40;;;;;;;;;;5048072;28;20636;-85
2024/02/22 00:41:49;;;;;;;18.57;1.83;;;;;;;;;;5043390;28;21067;-87
2024/02/22 00:44:16;;;;;;;1.73;1.63;;;;;;;;;;5042036;28;20762;-87
2024/02/22 00:46:43;;;;;;;2.03;1.50;;;;;;;;;;5048483;28;20627;-88
2024/02/22 00:49:10;;;;;;;2.87;2.13;;;;;;;;;;5049466;28;20669;-87
2024/02/22 00:51:37;;;;;;;2.80;1.70;;;;;;;;;;5045487;28;20631;-89
2024/02/22 00:54:06;;;;;;;1.53;1.43;;;;;;;;;;5045643;28;21279;-88
2024/02/22 00:56:33;;;;;;;2.87;1.43;;;;;;;;;;5037625;28;20744;-88
2024/02/22 00:59:00;;;;;;;1.33;1.23;;;;;;;;;;5047288;28;21474;-88
2024/02/22 01:01:27;;;;;;;2.73;1.57;;;;;;;;;;5047658;28;20707;-88
2024/02/22 01:03:54;;;;;;;2.73;1.40;;;;;;;;;;5050056;28;20671;-88
2024/02/22 01:06:21;;;;;;;1.70;1.50;;;;;;;;;;5042872;28;20744;-88
2024/02/22 01:08:48;;;;;;;2.53;1.80;;;;;;;;;;5051333;28;20653;-88
2024/02/22 01:11:17;;;;;;;1.53;1.43;;;11.20;92.60;;;;;;5046235;28;21074;-87
2024/02/22 01:13:44;;;;;;;2.50;1.60;;;;;;;;;;5049476;28;21067;-88
2024/02/22 01:16:11;;;;;;;1.53;1.43;;;;;;;;;;5049831;28;21242;-88
2024/02/22 01:18:38;;;;;;;1.30;1.20;;;;;;;;;;5040155;28;20745;-89
2024/02/22 01:21:05;;;;;;;3.47;1.80;;;;;;;;;;5050733;28;20717;-89
2024/02/22 01:23:32;;;;;;;2.63;1.50;;;;;;;;;;5047467;28;21237;-87
2024/02/22 01:26:00;;;;;;;1.87;1.67;;;;;;;;;;5045467;28;20734;-88
2024/02/22 01:28:29;;;;;;;1.70;1.53;;;;;;;;;;5046549;28;21350;-89
2024/02/22 01:30:56;;;;;;;2.73;1.80;;;;;;;;;;5048457;28;20634;-88
2024/02/22 01:33:23;;;;;;;1.73;1.63;;;;;;;;;;5049602;28;20635;-89
2024/02/22 01:35:50;;;;;;;2.90;2.20;;;;;;;;;;5049003;28;20714;-88
2024/02/22 01:38:17;;;;;;;2.13;1.63;;;;;;;;;;5048305;28;20730;-88
2024/02/22 01:40:44;;;;;;;1.83;1.60;;;;;;;;;;5050770;28;20785;-88
2024/02/22 01:43:11;;;;;;;3.10;2.10;;;;;;;;;;5047932;28;20722;-88
2024/02/22 01:45:40;;;;;;;5.73;1.90;;;;;;;;;;5049668;28;20682;-88
2024/02/22 01:48:08;;;;;;;2.20;2.00;;;;;;;;;;5045257;28;20633;-88
2024/02/22 01:50:35;;;;;;;4.17;2.53;;;;;;;;;;5047315;28;20670;-87
2024/02/22 01:53:02;;;;;;;2.50;1.80;;;;;;;;;;5048363;28;21237;-86
2024/02/22 01:55:29;;;;;;;2.17;1.90;;;;;;;;;;5043927;28;20733;-87
2024/02/22 01:57:57;;;;;;;1.50;1.20;;;;;;;;;;5049276;28;20716;-87
2024/02/22 02:00:24;;;;;;;2.73;2.07;;;9.80;98.90;;;;;;5046996;28;21063;-87
2024/02/22 02:02:55;;;;;;;2.50;2.00;;;;;;;;;;5049310;28;20687;-86
2024/02/22 02:05:22;;;;;;;2.67;2.47;;;;;;;;;;5045692;28;20731;-86
2024/02/22 02:07:50;;;;;;;3.43;1.50;;;;;;;;;;5048339;28;21196;-87
2024/02/22 02:10:17;;;;;;;1.77;1.67;;;;;;;;;;5042618;28;21319;-86
2024/02/22 02:12:44;;;;;;;1.73;1.33;;;;;;;;;;5043584;28;20677;-86
2024/02/22 02:15:12;;;;;;;1.43;1.33;;;;;;;;;;5043027;28;20718;-87
2024/02/22 02:17:40;;;;;;;2.00;1.80;;;;;;;;;;5049849;28;20631;-88
2024/02/22 02:20:11;;;;;;;1.63;1.50;;;;;;;;;;5046034;28;20663;-87
2024/02/22 02:22:52;;;;;;;1.80;1.70;;;;;;;;;;5046733;28;20649;-88
2024/02/22 02:25:20;;;;;;;1.40;1.30;;;;;;;;;;5049055;28;20630;-87
2024/02/22 02:27:48;;;;;;;2.03;1.83;;;;;;;;;;5049308;28;20674;-87
2024/02/22 02:30:16;;;;;;;1.63;1.53;;;;;;;;;;5049877;28;21243;-87
2024/02/22 02:32:44;;;;;;;1.53;1.43;;;;;;;;;;5050087;28;20626;-86
2024/02/22 02:35:11;;;;;;;1.90;1.60;;;;;;;;;;5047958;28;21167;-87
2024/02/22 02:37:39;;;;;;;1.37;1.27;;;;;;;;;;5050024;28;20739;-87
2024/02/22 02:40:07;;;;;;;1.50;1.40;;;;;;;;;;5042103;28;20625;-86
2024/02/22 02:42:37;;;;;;;1.57;1.40;;;;;;;;;;5048144;28;20629;-86
2024/02/22 02:45:05;;;;;;;1.83;1.30;;;;;;;;;;5049210;28;20619;-87
2024/02/22 02:47:34;;;;;;;2.40;1.10;;;;;;;;;;5049355;28;20623;-87
2024/02/22 02:50:02;;;;;;;1.80;1.50;;;9.70;99.80;;;;;;5040759;28;20723;-86
2024/02/22 02:52:29;;;;;;;1.67;1.33;;;9.70;96.70;;;;;;5049337;28;20684;-85
2024/02/22 02:54:57;;;;;;;1.83;1.27;;;9.60;96.90;;;;;;5045725;28;20632;-85
2024/02/22 02:57:24;;;;;;;1.83;1.20;;;;;;;;;;5043755;28;20655;-85
2024/02/22 02:59:53;;;;;;;1.33;1.23;;;9.60;96.90;;;;;;5049010;28;20665;-86
2024/02/22 03:02:22;;;;;;;1.53;1.23;;;;;;;;;;5048948;28;20635;-84
2024/02/22 03:04:50;;;;;;;1.73;1.63;;;9.50;97.10;;;;;;5048865;28;20634;-86
2024/02/22 03:07:18;;;;;;;1.20;1.10;;;9.50;97.70;;;;;;5040203;28;20666;-86
2024/02/22 03:09:44;;;;;;;1.53;1.20;;;9.60;97.60;;;;;;5045451;28;20668;-87
2024/02/22 03:12:11;;;;;;;1.80;1.27;;;9.60;99.90;;;;;;5039757;28;20982;-86
2024/02/22 03:14:38;;;;;;;1.17;1.07;;;9.60;97.90;;;;;;5046030;28;20625;-86
2024/02/22 03:17:07;;;;;;;1.30;1.20;;;;;;;;;;5033304;28;20660;-85
2024/02/22 03:19:34;;;;;;;1.30;1.20;;;;;;;;;;5047877;28;20627;-86
2024/02/22 03:22:02;;;;;;;1.17;1.07;;;;;;;;;;5045997;28;20626;-86
2024/02/22 03:24:30;;;;;;;1.50;1.40;;;;;;;;;;5041966;28;20631;-85
2024/02/22 03:26:59;;;;;;;1.50;1.30;;;;;;;;;;5047978;28;20657;-86
2024/02/22 03:29:28;;;;;;;1.47;1.37;;;;;;;;;;5046949;28;20701;-86
2024/02/22 03:31:55;;;;;;;1.30;1.20;;;9.30;99.10;;;;;;5041271;28;20728;-85
2024/02/22 03:34:26;;;;;;;1.53;1.33;;;9.30;99.60;;;;;;5043793;28;20627;-86
2024/02/22 03:36:56;;;;;;;2.73;1.70;;;;;;;;;;5047048;28;20623;-85
2024/02/22 03:39:23;;;;;;;2.23;1.67;;;9.00;99.90;;;;;;5048531;28;20715;-85
2024/02/22 03:41:53;;;;;;;1.20;1.10;;;9.00;99.90;;;;;;5046145;28;20626;-85
2024/02/22 03:44:22;;;;;;;4.50;2.00;;;9.10;99.90;;;;;;5048359;28;20641;-84
2024/02/22 03:46:51;;;;;;;1.27;1.17;;;9.10;99.90;;;;;;5046626;28;20627;-85
2024/02/22 03:49:20;;;;;;;1.57;1.47;;;;;;;;;;5048765;28;20622;-85
2024/02/22 03:51:50;;;;;;;1.07;1.00;;;9.10;99.90;;;;;;5047813;28;20633;-85
2024/02/22 03:54:18;;;;;;;1.20;1.10;;;;;;;;;;5048568;28;20769;-85
2024/02/22 03:56:46;;;;;;;1.70;1.33;;;;;;;;;;5045260;28;20618;-85
2024/02/22 03:59:14;;;;;;;1.40;1.10;;;;;;;;;;5048330;28;20629;-85
2024/02/22 04:01:43;;;;;;;2.40;1.40;;;;;;;;;;5045743;28;20638;-85
2024/02/22 04:04:11;;;;;;;2.30;1.70;;;;;;;;;;5043853;28;20624;-85
2024/02/22 04:06:39;;;;;;;1.70;1.43;;;;;;;;;;5042901;28;20621;-85
2024/02/22 04:09:07;;;;;;;1.80;1.30;;;9.00;99.90;;;;;;5048397;28;20677;-85
2024/02/22 04:11:34;;;;;;;1.60;1.27;;;;;;;;;;5039898;28;20670;-84
2024/02/22 04:14:01;;;;;;;2.30;1.30;;;;;;;;;;5039394;28;20734;-85
2024/02/22 04:16:28;;;;;;;1.30;1.20;;;;;;;;;;5042320;28;20620;-84
2024/02/22 04:18:56;;;;;;;1.17;1.07;;;;;;;;;;5046038;28;20949;-84
2024/02/22 04:21:23;;;;;;;1.73;1.60;;;;;;;;;;5046917;28;20622;-84
2024/02/22 04:23:50;;;;;;;1.37;1.27;;;;;;;;;;5044872;28;20650;-85
2024/02/22 04:26:18;;;;;;;1.40;1.23;;;;;;;;;;5047920;28;20641;-85
2024/02/22 04:28:45;;;;;;;2.03;1.57;;;;;;;;;;5039298;28;20619;-85
2024/02/22 04:31:12;;;;;;;2.00;1.50;;;8.80;99.90;;;;;;5043987;28;20679;-85
2024/02/22 04:33:40;;;;;;;1.80;1.70;;;8.70;99.90;;;;;;5044107;28;20684;-85
2024/02/22 04:36:08;;;;;;;1.50;1.40;;;8.50;99.90;;;;;;5046081;28;20726;-85
2024/02/22 04:38:35;;;;;;;1.57;1.47;;;8.70;99.90;;;;;;5044065;28;20629;-85
2024/02/22 04:41:01;;;;;;;1.50;1.40;;;8.80;99.90;;;;;;5035875;28;20614;-84
2024/02/22 04:43:30;;;;;;;1.57;1.30;;;8.80;99.90;;;;;;5047839;28;20626;-84
2024/02/22 04:45:57;;;;;;;1.53;1.27;;;;;;;;;;5038780;28;20623;-85
2024/02/22 04:48:23;;;;;;;1.60;1.50;;;11.10;99.90;;;;;;5042721;28;21514;-85
2024/02/22 04:50:50;;;;;;;1.60;1.40;;;8.80;99.90;;;;;;5048206;28;21373;-85
2024/02/22 04:53:17;;;;;;;1.30;1.20;;;8.80;99.90;;;;;;5040249;28;20630;-85
2024/02/22 04:55:44;;;;;;;1.30;1.20;;;8.80;99.90;;;;;;5047040;28;20629;-85
2024/02/22 04:58:10;;;;;;;1.50;1.40;;;8.70;99.90;;;;;;5055086;28;20898;-85
2024/02/22 05:00:40;;;;;;;1.50;1.30;;;8.80;99.90;;;;;;5054004;28;20625;-85
2024/02/22 05:03:07;;;;;;;1.50;1.40;;;8.80;99.90;;;;;;5044228;28;20957;-86
2024/02/22 05:05:34;;;;;;;2.50;1.53;;;8.80;99.90;;;;;;5053148;28;20623;-86
2024/02/22 05:08:01;;;;;;;1.07;1.07;;;8.80;99.90;;;;;;5051615;28;20607;-86
2024/02/22 05:10:30;;;;;;;1.60;1.23;;;8.80;99.90;;;;;;5044034;28;20662;-85
2024/02/22 05:12:56;;;;;;;2.10;1.13;;;8.70;99.90;;;;;;5045664;28;20630;-85
2024/02/22 05:15:23;;;;;;;2.00;1.43;;;8.70;99.90;;;;;;5042264;28;20622;-85
2024/02/22 05:17:51;;;;;;;1.87;1.40;;;8.80;99.90;;;;;;5046564;28;20627;-85
2024/02/22 05:20:18;;;;;;;1.53;1.43;;;8.70;99.90;;;;;;5046475;28;20627;-84
2024/02/22 05:22:45;;;;;;;2.00;1.37;;;8.80;99.90;;;;;;5047171;28;20634;-83
2024/02/22 05:25:12;;;;;;;1.50;1.30;;;8.80;99.90;;;;;;5044645;28;21331;-84
2024/02/22 05:27:38;;;;;;;1.47;1.37;;;8.80;99.90;;;;;;5046597;28;20858;-84
2024/02/22 05:30:06;;;;;;;1.90;1.67;;;8.80;99.90;;;;;;5048007;28;20781;-84
2024/02/22 05:32:33;;;;;;;2.03;1.60;;;8.70;99.90;;;;;;5049175;28;20631;-84
2024/02/22 05:35:01;;;;;;;1.50;1.40;;;8.80;99.90;;;;;;5050720;28;20737;-84
2024/02/22 05:37:28;;;;;;;1.70;1.23;;;8.70;99.90;;;;;;5050458;28;21055;-84
2024/02/22 05:39:55;;;;;;;1.70;1.60;;;8.70;99.90;;;;;;5049614;28;20733;-80
2024/02/22 05:42:22;;;;;;;3.53;1.90;;;8.60;99.90;;;;;;5049866;28;20692;-81
2024/02/22 05:44:48;;;;;;;1.60;1.50;;;8.60;99.90;;;;;;5050476;28;20649;-80
2024/02/22 05:47:15;;;;;;;1.80;1.50;;;8.60;99.90;;;;;;5042314;28;20636;-80
2024/02/22 05:49:42;;;;;;;2.77;1.60;;;8.70;99.90;;;;;;5045014;28;20629;-80
2024/02/22 05:52:11;;;;;;;1.70;1.60;;;8.70;99.90;;;;;;5049608;28;20673;-81
2024/02/22 05:54:38;;;;;;;1.13;1.03;;;8.60;99.90;;;;;;5048077;28;21163;-73
2024/02/22 05:57:05;;;;;;;1.70;1.60;;;8.60;99.90;;;;;;5051196;28;20626;-78
2024/02/22 05:59:32;;;;;;;1.43;1.30;;;8.60;99.90;;;;;;5045443;28;20641;-78
2024/02/22 06:01:59;;;;;;;1.50;1.40;;;8.60;99.90;;;;;;5050240;28;20614;-78
2024/02/22 06:04:25;;;;;;;1.70;1.60;;;8.60;99.90;;;;;;5049745;28;20641;-78
2024/02/22 06:06:52;;;;;;;2.20;2.00;;;8.50;99.90;;;;;;5047754;28;20638;-79
2024/02/22 06:09:20;;;;;;;1.90;1.70;;;8.60;99.90;;;;;;5049542;28;20626;-77
2024/02/22 06:11:47;;;;;;;1.77;1.60;;;8.60;99.90;;;;;;5050054;28;20669;-84
2024/02/22 06:14:14;;;;;;;1.57;1.47;;;8.60;99.90;;;;;;5049105;28;21218;-83
2024/02/22 06:16:41;;;;;;;1.37;1.27;;;8.60;99.90;;;;;;5040854;28;20658;-82
2024/02/22 06:19:08;;;;;;;2.30;1.77;;;8.60;99.90;;;;;;5046072;28;20721;-83
2024/02/22 06:21:34;;;;;;;2.27;1.60;;;8.60;99.90;;;;;;5042285;28;20309;-82
2024/02/22 06:24:01;;;;;;;3.90;1.60;;;8.60;99.90;;;;;;5042132;28;20625;-80
2024/02/22 06:26:34;;;;;;;2.10;1.90;;;8.70;99.90;;;;;;5042771;28;20956;-80
2024/02/22 06:29:01;;;;;;;1.77;1.60;;;8.80;99.90;;;;;;5045171;28;20618;-80
2024/02/22 06:31:28;;;;;;;1.60;1.47;;;8.70;99.90;;;;;;5049065;28;21214;-88
2024/02/22 06:33:54;;;;;;;2.60;1.83;;;8.80;99.90;;;;;;5049162;28;21198;-84
2024/02/22 06:36:21;;;;;;;2.07;1.87;;;8.80;99.90;;;;;;5048889;28;20620;-84
2024/02/22 06:38:48;;;;;;;1.70;1.60;;;8.70;99.90;;;;;;5046883;28;20757;-84
2024/02/22 06:41:15;;;;;;;2.40;1.67;;;8.70;99.90;;;;;;5047852;28;20637;-84
2024/02/22 06:43:44;;;;;;;1.80;1.60;;;8.60;99.90;;;;;;5045934;28;20641;-84
2024/02/22 06:46:12;;;;;;;1.90;1.80;;;8.60;99.90;;;;;;5045746;28;20245;-85
2024/02/22 06:48:38;;;;;;;2.80;1.80;;;8.60;99.90;;;;;;5045870;28;21091;-84
2024/02/22 06:51:05;;;;;;;2.80;1.53;;;8.70;99.90;;;;;;5048343;28;20782;-85
2024/02/22 06:53:32;;;;;;;2.40;1.63;;;8.70;99.90;;;;;;5046775;28;20629;-85
2024/02/22 06:55:59;;;;;;;2.47;1.90;;;8.70;99.90;;;;;;5046271;28;20730;-86
2024/02/22 06:58:26;;;;;;;2.60;1.73;;;8.70;99.90;;;;;;5048455;28;20627;-85
2024/02/22 07:00:54;;;;;;;2.83;1.77;;;8.70;99.90;;;;;;5044873;28;21324;-85
2024/02/22 07:03:21;;;;;;;2.30;2.10;;;8.70;99.90;;;;;;5042333;28;20622;-85
2024/02/22 07:05:48;;;;;;;3.03;2.40;;;8.60;99.90;;;;;;5047368;28;20633;-86
2024/02/22 07:08:15;;;;;;;2.53;2.20;;;8.60;99.90;;;;;;5044791;28;20681;-86
2024/02/22 07:10:42;;;;;;;3.73;2.50;;;8.60;99.90;;;;;;5043632;28;21076;-85
2024/02/22 07:13:09;;;;;;;3.17;2.87;;;8.70;99.90;;;;;;5040682;28;20645;-86
2024/02/22 07:15:36;;;;;;;3.10;2.80;;;8.70;99.90;;;;;;5048366;28;20691;-86
2024/02/22 07:18:04;;;;;;;4.07;2.93;;;8.70;99.90;;;;;;5043809;28;20750;-85
2024/02/22 07:20:32;;;;;;;2.70;2.50;;;8.70;99.90;;;;;;5044682;28;20675;-86
2024/02/22 07:22:58;;;;;;;7.50;3.80;;;8.70;99.90;;;;;;5047862;28;20638;-86
2024/02/22 07:25:25;;;;;;;3.37;2.60;;;8.70;99.90;;;;;;5046621;28;20665;-85
2024/02/22 07:27:52;;;;;;;3.47;3.10;;;8.80;99.90;;;;;;5046060;28;20640;-84
2024/02/22 07:30:19;;;;;;;3.57;2.90;;;8.60;99.90;;;;;;5048824;28;20619;-86
2024/02/22 07:32:46;;;;;;;4.30;3.00;;;8.70;99.90;;;;;;5048392;28;21179;-86
2024/02/22 07:35:16;;;;;;;3.07;2.77;;;8.80;99.90;;;;;;5048142;28;20673;-85
2024/02/22 07:37:43;;;;;;;5.00;3.67;;;8.80;99.90;;;;;;5046327;28;20633;-83
2024/02/22 07:40:10;;;;;;;3.63;2.50;;;8.90;99.90;;;;;;5043557;28;21051;-83
2024/02/22 07:42:37;;;;;;;4.17;2.67;;;8.80;99.90;;;;;;5045540;28;21043;-83
2024/02/22 07:45:05;;;;;;;4.07;2.90;;;8.80;99.90;;;;;;5036509;28;20626;-83
2024/02/22 07:47:32;;;;;;;5.00;3.20;;;8.70;99.90;;;;;;5045887;28;20710;-84
2024/02/22 07:49:59;;;;;;;3.10;2.30;;;8.80;99.90;;;;;;5048213;28;21032;-82
2024/02/22 07:52:27;;;;;;;7.50;2.53;;;8.80;99.90;;;;;;5045276;28;20674;-80
2024/02/22 07:54:55;;;;;;;2.83;2.63;;;8.80;99.90;;;;;;5044014;28;20642;-81
2024/02/22 07:57:22;;;;;;;1.80;1.47;;;8.90;99.90;;;;;;5044065;28;21209;-82
2024/02/22 07:59:48;;;;;;;1.70;1.60;;;8.80;99.90;;;;;;5046984;28;21184;-80
2024/02/22 08:02:15;;;;;;;1.83;1.53;;;8.80;99.90;;;;;;5043302;28;20725;-80
2024/02/22 08:04:42;;;;;;;2.30;1.73;;;8.80;99.90;;;;;;5047738;28;20630;-80
2024/02/22 08:07:09;;;;;;;2.33;2.10;;;8.80;99.90;;;;;;5044963;28;20639;-80
2024/02/22 08:09:37;;;;;;;1.93;1.33;;;8.80;99.90;;;;;;5044460;28;20628;-80
2024/02/22 08:12:05;;;;;;;1.93;1.60;;;8.90;99.90;;;;;;5039704;28;21079;-80
2024/02/22 08:14:32;;;;;;;1.43;1.10;;;8.90;99.90;;;;;;5048118;28;20629;-82
2024/02/22 08:16:58;;;;;;;2.00;1.40;;;9.00;99.90;;;;;;5041037;28;20629;-80
2024/02/22 08:19:25;;;;;;;1.37;1.27;;;8.90;99.90;;;;;;5048053;28;20627;-79
2024/02/22 08:21:52;;;;;;;0.60;0.60;;;8.90;99.90;;;;;;5042795;28;20729;-80
2024/02/22 08:24:21;;;;;;;1.43;1.10;;;8.90;99.90;;;;;;5047010;28;20621;-80
2024/02/22 08:26:49;;;;;;;2.20;1.03;;;9.00;99.90;;;;;;5046304;28;20638;-79
2024/02/22 08:29:16;;;;;;;1.10;1.00;;;9.00;99.90;;;;;;5047318;28;20630;-79
2024/02/22 08:31:43;;;;;;;1.70;1.10;;;8.90;99.90;;;;;;5041174;28;20663;-79
2024/02/22 08:34:10;;;;;;;1.30;0.90;;;9.00;99.90;;;;;;5045215;28;20725;-79
2024/02/22 08:36:36;;;;;;;1.80;0.87;;;9.00;99.90;;;;;;5043502;28;20640;-79
2024/02/22 08:39:03;;;;;;;0.70;0.67;;;9.10;99.90;;;;;;5040365;28;20629;-80
2024/02/22 08:41:30;;;;;;;1.60;1.37;;;9.00;99.90;;;;;;5043748;28;20730;-80
2024/02/22 08:43:58;;;;;;;1.00;0.97;;;9.20;99.90;;;;;;5043753;28;20627;-80
2024/02/22 08:46:25;;;;;;;1.20;1.10;;;9.10;99.90;;;;;;5041739;28;20629;-79
2024/02/22 08:48:52;;;;;;;1.40;1.20;;;9.10;99.90;;;;;;5046304;28;21072;-81
2024/02/22 08:51:19;;;;;;;1.10;0.90;;;9.10;99.90;;;;;;5044556;28;21016;-80
2024/02/22 08:53:45;;;;;;;1.17;0.90;;;9.20;99.90;;;;;;5045488;28;20682;-80
2024/02/22 08:56:12;;;;;;;1.37;1.00;;;9.20;99.90;;;;;;5042417;28;20638;-81
2024/02/22 08:58:39;;;;;;;0.90;0.70;;;9.20;99.90;;;;;;5041495;28;20658;-80
2024/02/22 09:01:08;;;;;;;0.60;0.60;;;9.40;99.90;;;;;;5037920;28;20641;-81
2024/02/22 09:03:35;;;;;;;1.23;0.87;;;9.40;99.90;;;;;;5044776;28;20627;-80
2024/02/22 09:06:02;;;;;;;1.10;0.97;;;9.40;99.90;;;;;;5043961;28;20626;-80
2024/02/22 09:08:28;;;;;;;0.60;0.60;;;9.30;99.90;;;;;;5047483;28;20622;-80
2024/02/22 09:10:55;;;;;;;0.80;0.80;;;9.40;99.90;;;;;;5049104;28;20669;-80
2024/02/22 09:13:22;;;;;;;1.43;0.80;;;9.50;99.90;;;;;;5050509;28;20668;-81
2024/02/22 09:15:50;;;;;;;0.73;0.73;;;9.50;99.90;;;;;;5050693;28;20629;-80
2024/02/22 09:18:19;;;;;;;0.40;0.40;;;9.50;99.90;;;;;;5049988;28;20635;-80
2024/02/22 09:20:47;;;;;;;0.80;0.77;;;9.50;99.90;;;;;;5046200;28;20611;-80
2024/02/22 09:23:14;;;;;;;1.20;0.70;;;9.50;99.90;;;;;;5043914;28;20634;-80
2024/02/22 09:25:42;;;;;;;5.10;0.87;;;9.50;99.90;;;;;;5042123;28;20623;-79
2024/02/22 09:28:09;;;;;;;0.60;0.60;;;9.40;99.90;;;;;;5048507;28;20622;-80
2024/02/22 09:30:36;;;;;;;1.50;0.57;;;9.40;99.90;;;;;;5047795;28;20645;-80
2024/02/22 09:33:03;;;;;;;0.40;0.40;;;9.60;99.90;;;;;;5047353;28;20666;-80
2024/02/22 09:35:31;;;;;;;0.63;0.63;;;9.70;99.90;;;;;;5044732;28;20626;-81
2024/02/22 09:37:59;;;;;;;1.10;0.53;;;9.60;99.90;;;;;;5042213;28;20662;-81
2024/02/22 09:40:26;;;;;;;0.60;0.60;;;9.60;99.90;;;;;;5042622;28;20726;-81
2024/02/22 09:42:53;;;;;;;0.50;0.47;;;9.60;99.90;;;;;;5046063;28;20622;-80
2024/02/22 09:45:20;;;;;;;0.50;0.50;;;9.60;99.90;;;;;;5048537;28;21262;-80
2024/02/22 09:47:47;;;;;;;0.40;0.40;;;9.60;99.90;;;;;;5039849;28;20730;-80
2024/02/22 09:50:14;;;;;;;0.57;0.40;;;9.70;99.90;;;;;;5050436;28;20634;-80
2024/02/22 09:52:43;;;;;;;0.60;0.60;;;9.60;99.90;;;;;;5045680;28;20674;-79
2024/02/22 09:55:12;;;;;;;0.40;0.40;;;9.70;99.90;;;;;;5046643;28;20636;-79
2024/02/22 09:57:38;;;;;;;0.57;0.57;;;9.80;99.90;;;;;;5042411;28;20630;-80
2024/02/22 10:00:07;;;;;;;1.23;0.63;;;9.80;99.90;;;;;;5048445;28;20626;-80
2024/02/22 10:02:35;;;;;;;1.90;0.87;;;9.70;99.90;;;;;;5047633;28;20975;-80
2024/02/22 10:05:03;;;;;;;0.50;0.50;;;9.80;99.90;;;;;;5049816;28;20658;-80
2024/02/22 10:07:32;;;;;;;0.57;0.57;;;9.90;99.90;;;;;;5048722;28;20639;-80
2024/02/22 10:10:00;;;;;;;0.60;0.60;;;10.00;99.90;;;;;;5050517;28;20623;-80
2024/02/22 10:12:28;;;;;;;0.70;0.70;;;10.10;99.90;;;;;;5042504;28;20701;-80
2024/02/22 10:14:55;;;;;;;0.90;0.73;;;10.10;99.90;;;;;;5048908;28;20624;-80
2024/02/22 10:17:24;;;;;;;1.03;0.93;;;10.20;99.90;;;;;;5049812;28;20717;-79
2024/02/22 10:19:58;;;;;;;0.40;0.40;;;10.30;99.90;;;;;;5048257;28;21247;-80
2024/02/22 10:22:25;;;;;;;0.90;0.53;;;10.30;99.90;;;;;;5040583;28;21094;-81
2024/02/22 10:24:53;;;;;;;0.50;0.50;;;10.20;99.90;;;;;;5041916;28;20735;-79
2024/02/22 10:27:24;;;;;;;0.70;0.57;;;10.10;99.90;;;;;;5043266;28;20634;-81
2024/02/22 10:29:52;;;;;;;0.70;0.57;;;10.40;99.90;;;;;;5044277;28;21036;-80
2024/02/22 10:32:20;;;;;;;0.93;0.70;;;10.30;99.90;;;;;;5046254;28;20767;-79
2024/02/22 10:34:50;;;;;;;0.63;0.63;;;10.40;99.90;;;;;;5038998;28;21088;-80
2024/02/22 10:37:17;;;;;;;0.97;0.80;;;10.30;99.90;;;;;;5038714;28;21152;-80
2024/02/22 10:39:45;;;;;;;0.70;0.63;;;10.40;99.90;;;;;;5044956;28;20635;-80
2024/02/22 10:42:14;;;;;;;1.23;0.60;;;10.40;99.90;;;;;;5044155;28;20682;-80
2024/02/22 10:44:43;;;;;;;1.90;1.23;;;10.30;99.90;;;;;;5047965;28;21154;-80
2024/02/22 10:47:11;;;;;;;0.77;0.53;;;10.30;99.90;;;;;;5037891;28;20629;-80
2024/02/22 10:49:39;;;;;;;0.60;0.53;;;10.30;99.90;;;;;;5041705;28;20620;-80
2024/02/22 10:52:07;;;;;;;0.60;0.30;;;10.30;99.90;;;;;;5038695;28;20660;-80
2024/02/22 10:54:35;;;;;;;0.60;0.57;;;10.30;99.90;;;;;;5043718;28;20622;-80
2024/02/22 10:57:02;;;;;;;2.73;0.60;;;10.20;99.90;;;;;;5042208;28;20721;-80
2024/02/22 10:59:32;;;;;;;0.73;0.43;;;10.40;99.90;;;;;;5047186;28;20967;-80
2024/02/22 11:02:01;;;;;;;0.60;0.40;;;10.30;99.90;;;;;;5044779;28;20632;-76
2024/02/22 11:04:28;;;;;;;0.40;0.30;;;10.30;99.90;;;;;;5042387;28;21029;-76
2024/02/22 11:06:55;;;;;;;0.40;0.40;;;10.20;99.90;;;;;;5046466;28;20758;-76
2024/02/22 11:09:24;;;;;;;1.10;1.00;;;10.10;99.90;;;;;;5047411;28;20626;-76
2024/02/22 11:11:52;;;;;;;0.77;0.60;;;10.10;99.90;;;;;;5049414;28;20654;-76
2024/02/22 11:14:29;;;;;;;0.40;0.30;;;10.10;99.90;;;;;;5048659;28;20632;-76
2024/02/22 11:16:57;;;;;;;1.50;0.70;;;10.10;99.90;;;;;;5047560;28;21165;-77
2024/02/22 11:19:26;;;;;;;2.00;0.50;;;10.20;99.90;;;;;;5042851;28;20197;-76
2024/02/22 11:21:53;;;;;;;0.60;0.50;;;10.20;99.90;;;;;;5048743;28;20726;-76
2024/02/22 11:24:24;;;;;;;0.60;0.50;;;10.10;99.90;;;;;;5042222;28;21205;-78
2024/02/22 11:26:51;;;;;;;1.90;0.60;;;10.00;99.90;;;;;;5043238;28;20640;-74
2024/02/22 11:29:29;;;;;;;0.40;0.30;;;9.90;99.90;;;;;;5048281;28;21040;-73
2024/02/22 11:31:58;;;;;;;0.30;0.30;;;10.00;99.90;;;;;;5046526;28;20749;-72
2024/02/22 11:34:26;;;;;;;0.70;0.70;;;10.00;99.90;;;;;;5041346;28;20634;-74
2024/02/22 11:36:55;;;;;;;1.70;0.60;;;10.00;99.90;;;;;;5048125;28;20635;-73
2024/02/22 11:39:22;;;;;;;1.07;0.53;;;10.00;99.90;;;;;;5048126;28;20629;-74
2024/02/22 11:41:49;;;;;;;0.40;0.40;;;10.00;99.90;;;;;;5047793;28;21037;-74
2024/02/22 11:44:17;;;;;;;0.60;0.50;;;9.90;99.90;;;;;;5043559;28;20619;-75
2024/02/22 11:46:45;;;;;;;0.40;0.30;;;9.90;99.90;;;;;;5041774;28;20623;-74
2024/02/22 11:49:14;;;;;;;0.90;0.50;;;10.00;99.90;;;;;;5048597;28;21262;-75
2024/02/22 11:51:43;;;;;;;0.73;0.60;;;9.90;99.90;;;;;;5048060;28;20710;-77
2024/02/22 11:54:10;;;;;;;0.60;0.50;;;10.20;99.90;;;;;;5048448;28;20757;-76
2024/02/22 11:56:38;;;;;;;0.70;0.60;;;10.00;99.90;;;;;;5045770;28;20765;-76
2024/02/22 11:59:07;;;;;;;0.57;0.57;;;10.20;99.90;;;;;;5036779;28;20622;-76
2024/02/22 12:01:35;;;;;;;0.50;0.50;;;10.30;99.90;;;;;;5040511;28;20631;-76
2024/02/22 12:04:03;;;;;;;0.80;0.70;;;10.30;99.90;;;;;;5047133;28;20677;-76
2024/02/22 12:06:30;;;;;;;0.60;0.60;;;10.50;99.90;;;;;;5045081;28;21429;-76
2024/02/22 12:08:58;;;;;;;3.17;0.50;;;10.60;99.90;;;;;;5047232;28;20754;-76
2024/02/22 12:11:25;;;;;;;0.40;0.30;;;10.70;99.90;;;;;;5048030;28;20650;-75
2024/02/22 12:13:56;;;;;;;0.60;0.50;;;10.80;99.90;;;;;;5045928;28;20752;-75
2024/02/22 12:16:23;;;;;;;0.53;0.53;;;10.90;99.90;;;;;;5045792;28;20628;-75
2024/02/22 12:18:52;;;;;;;1.53;0.50;;;11.00;99.90;;;;;;5042435;28;20630;-76
2024/02/22 12:21:22;;;;;;;0.73;0.50;;;11.00;99.90;;;;;;5048080;28;20748;-75
2024/02/22 12:23:49;;;;;;;0.67;0.47;;;11.10;99.90;;;;;;5047606;28;20624;-75
2024/02/22 12:26:18;;;;;;;0.63;0.40;;;11.10;99.90;;;;;;5047372;28;20662;-75
2024/02/22 12:28:49;;;;;;;0.40;0.40;;;11.00;99.90;;;;;;5048259;28;20638;-75
2024/02/22 12:31:18;;;;;;;0.50;0.50;;;10.90;99.90;;;;;;5047230;28;21200;-75
2024/02/22 12:33:50;;;;;;;0.73;0.47;;;11.00;99.90;;;;;;5044072;28;20684;-75
2024/02/22 12:36:17;;;;;;;0.50;0.50;;;11.00;99.90;;;;;;5047949;28;21166;-75
2024/02/22 12:38:45;;;;;;;0.50;0.47;;;11.00;99.90;;;;;;5047195;28;20629;-75
2024/02/22 12:41:12;;;;;;;0.43;0.43;;;10.90;99.90;;;;;;5050507;28;20619;-75
2024/02/22 12:43:45;;;;;;;0.50;0.50;;;10.90;99.90;;;;;;5051576;28;20737;-75
2024/02/22 12:46:12;;;;;;;3.93;0.70;;;10.80;99.90;;;;;;5044324;28;20637;-75
2024/02/22 12:48:38;;;;;;;0.73;0.40;;;10.90;99.90;;;;;;5051770;28;20626;-75
2024/02/22 12:51:06;;;;;;;0.30;0.30;;;10.80;99.90;;;;;;5051748;28;20781;-75
2024/02/22 12:53:33;;;;;;;1.07;0.50;;;10.70;99.90;;;;;;5051382;28;20786;-76
2024/02/22 12:56:00;;;;;;;0.73;0.60;;;10.70;99.90;;;;;;5050928;28;20621;-76
2024/02/22 12:58:27;;;;;;;0.50;0.50;;;10.80;99.90;;;;;;5051371;28;20642;-76
2024/02/22 13:00:55;;;;;;;0.47;0.43;;;11.40;99.90;;;;;;5051482;28;20633;-76
2024/02/22 13:03:22;;;;;;;2.50;0.80;;;10.90;99.90;;;;;;5050498;28;20712;-75
2024/02/22 13:05:49;;;;;;;4.23;0.77;;;10.90;99.90;;;;;;5051156;28;20656;-76
2024/02/22 13:08:16;;;;;;;0.60;0.60;;;10.70;99.90;;;;;;5051349;28;20711;-75
2024/02/22 13:10:43;;;;;;;0.73;0.70;;;10.70;99.90;;;;;;5051405;28;20627;-75
2024/02/22 13:13:10;;;;;;;0.53;0.53;;;10.70;99.90;;;;;;5042881;28;20675;-75
2024/02/22 13:15:37;;;;;;;0.57;0.50;;;10.60;99.90;;;;;;5048309;28;20630;-75
2024/02/22 13:18:06;;;;;;;0.67;0.67;;;10.50;99.90;;;;;;5049943;28;20695;-75
2024/02/22 13:20:34;;;;;;;0.80;0.70;;;10.50;99.90;;;;;;5049892;28;20982;-75